Thunder radar more information blitzortung!


Radar de pluja more information rain snow radar


Visita la nostra xarxa de llocs de meteo:

Template documentation
and downloads

And another site



Wind From: 11-12-2017 11:00 Until: 14:59 warning for: Wind Level: Yellow info button

Pagina Historial Weather Underground text

Diari Resum Setembre 1, 2017 Unitats:  Tant    Imperial   Mètric
« Previous Dia
SegĂźent Dia »
Diari Setmana Mensual Anual Personalitzada
  Maxima: Minima: Media:
Temperatura: 82 °F /  27.8 °C 61.9 °F /  16.6 °C 71.6 °F /  22 °C
Punt de rosada: 60.4 °F /  15.8 °C 46.6 °F /  8.1 °C 56.5 °F /  13.6 °C
Humitat: 92 % 39 % 61 %
Wind Speed: 8.5 mph /  13.7 km/h - 3.3 mph /  5.3 km/h
RĂ fegues de vent: 8.5 mph /  13.7 km/h - -
Vent:- - South
Pression baro: 30.1 in /  1018.8 hPa 30 in /  1014.8 hPa -
Precipitacions: 0 in /  0.0 mm    
Historical Graphs
 
 
Dades de taula per Setembre 1, 2017
Temps Temperatura Punt de rosada Pression baro Vent Wind Speed RĂ fegues de vent Humitat Rainfall Rate (Hourly)
00:00 67.5 °F /  19.7 °C 60.4 °F /  15.8 °C 30.1 in /  1017.8 hPa North 2.3 mph /  3.7 km/h 2.3 mph /  3.7 km/h 78 % 0 in /  0.0 mm
00:05 67.3 °F /  19.6 °C 60.4 °F /  15.8 °C 30.1 in /  1017.8 hPa WNW 1.2 mph /  1.9 km/h   79 % 0 in /  0.0 mm
00:10 63.5 °F /  17.5 °C 59.9 °F /  15.5 °C 30.1 in /  1017.8 hPa NNE 1 mph /  1.6 km/h 2 mph /  3.2 km/h 88 % 0 in /  0.0 mm
00:20 63.5 °F /  17.5 °C 59.9 °F /  15.5 °C 30.1 in /  1017.8 hPa Calm   1 mph /  1.6 km/h 88 % 0 in /  0.0 mm
00:30 63.1 °F /  17.3 °C 59.5 °F /  15.3 °C 30.1 in /  1017.8 hPa North 1 mph /  1.6 km/h 2 mph /  3.2 km/h 88 % 0 in /  0.0 mm
00:50 63.1 °F /  17.3 °C 59.7 °F /  15.4 °C 30.1 in /  1017.8 hPa WSW 1 mph /  1.6 km/h 2 mph /  3.2 km/h 89 % 0 in /  0.0 mm
01:00 63.1 °F /  17.3 °C 59.7 °F /  15.4 °C 30.1 in /  1017.8 hPa Calm     89 % 0 in /  0.0 mm
01:10 63 °F /  17.2 °C 59.7 °F /  15.4 °C 30.1 in /  1017.8 hPa Calm     89 % 0 in /  0.0 mm
01:20 62.8 °F /  17.1 °C 59.5 °F /  15.3 °C 30.1 in /  1017.8 hPa Calm   1 mph /  1.6 km/h 89 % 0 in /  0.0 mm
01:30 62.6 °F /  17.0 °C 59.4 °F /  15.2 °C 30.1 in /  1017.8 hPa WSW 1 mph /  1.6 km/h 2 mph /  3.2 km/h 89 % 0 in /  0.0 mm
01:40 62.6 °F /  17.0 °C 59.4 °F /  15.2 °C 30.1 in /  1017.8 hPa WSW 1 mph /  1.6 km/h 2 mph /  3.2 km/h 89 % 0 in /  0.0 mm
01:50 62.6 °F /  17.0 °C 59.5 °F /  15.3 °C 30.1 in /  1017.8 hPa SW 1 mph /  1.6 km/h 2 mph /  3.2 km/h 90 % 0 in /  0.0 mm
02:00 62.4 °F /  16.9 °C 59.4 °F /  15.2 °C 30.1 in /  1017.8 hPa SW 1 mph /  1.6 km/h 2 mph /  3.2 km/h 90 % 0 in /  0.0 mm
02:10 62.4 °F /  16.9 °C 59.4 °F /  15.2 °C 30.1 in /  1017.8 hPa SW 1 mph /  1.6 km/h 2 mph /  3.2 km/h 90 % 0 in /  0.0 mm
02:20 62.4 °F /  16.9 °C 59.7 °F /  15.4 °C 30.1 in /  1017.8 hPa Calm     91 % 0 in /  0.0 mm
02:30 62.4 °F /  16.9 °C 59.7 °F /  15.4 °C 30.1 in /  1017.8 hPa Calm   2 mph /  3.2 km/h 91 % 0 in /  0.0 mm
02:40 62.2 °F /  16.8 °C 59.9 °F /  15.5 °C 30.1 in /  1017.8 hPa Calm   1 mph /  1.6 km/h 92 % 0 in /  0.0 mm
02:50 62.2 °F /  16.8 °C 59.9 °F /  15.5 °C 30.1 in /  1017.8 hPa NNE 2 mph /  3.2 km/h 2 mph /  3.2 km/h 92 % 0 in /  0.0 mm
03:00 62.4 °F /  16.9 °C 60.1 °F /  15.6 °C 30.1 in /  1017.8 hPa Calm   3 mph /  4.8 km/h 92 % 0 in /  0.0 mm
03:10 62.2 °F /  16.8 °C 59.9 °F /  15.5 °C 30.1 in /  1017.8 hPa Calm   2 mph /  3.2 km/h 92 % 0 in /  0.0 mm
03:20 62.2 °F /  16.8 °C 59.9 °F /  15.5 °C 30 in /  1016.8 hPa NE 1 mph /  1.6 km/h 3 mph /  4.8 km/h 92 % 0 in /  0.0 mm
03:30 62.2 °F /  16.8 °C 59.9 °F /  15.5 °C 30 in /  1016.8 hPa NE 1 mph /  1.6 km/h 2 mph /  3.2 km/h 92 % 0 in /  0.0 mm
03:40 62.2 °F /  16.8 °C 59.9 °F /  15.5 °C 30 in /  1016.8 hPa Calm     92 % 0 in /  0.0 mm
03:50 62.4 °F /  16.9 °C 60.1 °F /  15.6 °C 30.1 in /  1017.8 hPa Calm     92 % 0 in /  0.0 mm
04:00 62.4 °F /  16.9 °C 60.1 °F /  15.6 °C 30 in /  1016.8 hPa Calm   1 mph /  1.6 km/h 92 % 0 in /  0.0 mm
04:10 62.6 °F /  17.0 °C 59.9 °F /  15.5 °C 30 in /  1016.8 hPa Calm   1 mph /  1.6 km/h 91 % 0 in /  0.0 mm
04:20 62.6 °F /  17.0 °C 60.3 °F /  15.7 °C 30.1 in /  1017.8 hPa North 1 mph /  1.6 km/h 1 mph /  1.6 km/h 92 % 0 in /  0.0 mm
04:30 62.6 °F /  17.0 °C 59.9 °F /  15.5 °C 30.1 in /  1017.8 hPa SSW 1 mph /  1.6 km/h 3 mph /  4.8 km/h 91 % 0 in /  0.0 mm
04:40 62.6 °F /  17.0 °C 59.9 °F /  15.5 °C 30.1 in /  1017.8 hPa Calm   2 mph /  3.2 km/h 91 % 0 in /  0.0 mm
04:50 62.8 °F /  17.1 °C 60.4 °F /  15.8 °C 30.1 in /  1018.8 hPa WSW 1 mph /  1.6 km/h 2 mph /  3.2 km/h 92 % 0 in /  0.0 mm
05:00 61.9 °F /  16.6 °C 58.6 °F /  14.8 °C 30.1 in /  1018.8 hPa West 1 mph /  1.6 km/h 1 mph /  1.6 km/h 89 % 0 in /  0.0 mm
05:10 62.2 °F /  16.8 °C 57.9 °F /  14.4 °C 30.1 in /  1018.8 hPa Calm   2 mph /  3.2 km/h 86 % 0 in /  0.0 mm
05:20 63 °F /  17.2 °C 57.7 °F /  14.3 °C 30.1 in /  1018.8 hPa WSW 2 mph /  3.2 km/h 3 mph /  4.8 km/h 83 % 0 in /  0.0 mm
05:30 63.5 °F /  17.5 °C 56.8 °F /  13.8 °C 30.1 in /  1018.8 hPa WSW 1 mph /  1.6 km/h 2 mph /  3.2 km/h 79 % 0 in /  0.0 mm
05:40 64 °F /  17.8 °C 56.7 °F /  13.7 °C 30.1 in /  1018.8 hPa Calm   1 mph /  1.6 km/h 77 % 0 in /  0.0 mm
05:50 64.4 °F /  18.0 °C 56.7 °F /  13.7 °C 30.1 in /  1018.8 hPa West 1 mph /  1.6 km/h 3 mph /  4.8 km/h 76 % 0 in /  0.0 mm
06:00 64.4 °F /  18.0 °C 56.3 °F /  13.5 °C 30.1 in /  1018.8 hPa West 1 mph /  1.6 km/h 2 mph /  3.2 km/h 75 % 0 in /  0.0 mm
06:10 64.4 °F /  18.0 °C 55.6 °F /  13.1 °C 30.1 in /  1018.8 hPa Calm   2 mph /  3.2 km/h 73 % 0 in /  0.0 mm
11:13 67.3 °F /  19.6 °C 55.9 °F /  13.3 °C 30.1 in /  1018.8 hPa WSW 2 mph /  3.2 km/h 2 mph /  3.2 km/h 67 % 0 in /  0.0 mm
11:14 67.3 °F /  19.6 °C 55.9 °F /  13.3 °C 30.1 in /  1018.8 hPa WSW 2 mph /  3.2 km/h 2 mph /  3.2 km/h 67 % 0 in /  0.0 mm
11:15 67.3 °F /  19.6 °C 56.5 °F /  13.6 °C 30.1 in /  1018.8 hPa SSW 4.6 mph /  7.4 km/h 4.6 mph /  7.4 km/h 68 % 0 in /  0.0 mm
11:20 67.5 °F /  19.7 °C 56.1 °F /  13.4 °C 30.1 in /  1018.8 hPa West 3.5 mph /  5.6 km/h 3.5 mph /  5.6 km/h 67 % 0 in /  0.0 mm
11:25 68 °F /  20.0 °C 55.8 °F /  13.2 °C 30.1 in /  1018.8 hPa WSW 3.5 mph /  5.6 km/h 3.5 mph /  5.6 km/h 65 % 0 in /  0.0 mm
11:30 68.2 °F /  20.1 °C 55.9 °F /  13.3 °C 30.1 in /  1018.8 hPa NNW 3.5 mph /  5.6 km/h 3.5 mph /  5.6 km/h 65 % 0 in /  0.0 mm
11:35 68.7 °F /  20.4 °C 56.5 °F /  13.6 °C 30.1 in /  1018.8 hPa West 2.3 mph /  3.7 km/h 2.3 mph /  3.7 km/h 65 % 0 in /  0.0 mm
11:40 69.4 °F /  20.8 °C 56.7 °F /  13.7 °C 30.1 in /  1018.8 hPa SW 0.9 mph /  1.4 km/h   64 % 0 in /  0.0 mm
11:45 70.2 °F /  21.2 °C 57.4 °F /  14.1 °C 30.1 in /  1018.8 hPa WSW 5.8 mph /  9.3 km/h 5.8 mph /  9.3 km/h 64 % 0 in /  0.0 mm
11:46 70.2 °F /  21.2 °C 57.4 °F /  14.1 °C 30.1 in /  1018.8 hPa WNW 3.5 mph /  5.6 km/h 3.5 mph /  5.6 km/h 64 % 0 in /  0.0 mm
11:51 70.7 °F /  21.5 °C 57.6 °F /  14.2 °C 30.1 in /  1018.8 hPa SW 3.5 mph /  5.6 km/h 3.5 mph /  5.6 km/h 63 % 0 in /  0.0 mm
11:56 71.6 °F /  22.0 °C 57.9 °F /  14.4 °C 30.1 in /  1018.8 hPa WSW 3.5 mph /  5.6 km/h 3.5 mph /  5.6 km/h 62 % 0 in /  0.0 mm
12:01 71.8 °F /  22.1 °C 57.6 °F /  14.2 °C 30.1 in /  1018.8 hPa NNE 3.5 mph /  5.6 km/h 3.5 mph /  5.6 km/h 61 % 0 in /  0.0 mm
12:06 72.1 °F /  22.3 °C 57 °F /  13.9 °C 30.1 in /  1018.8 hPa SW 5.8 mph /  9.3 km/h 5.8 mph /  9.3 km/h 59 % 0 in /  0.0 mm
12:11 72.3 °F /  22.4 °C 57.2 °F /  14.0 °C 30.1 in /  1017.8 hPa WSW 7.4 mph /  11.9 km/h 7.4 mph /  11.9 km/h 59 % 0 in /  0.0 mm
12:16 72.5 °F /  22.5 °C 56.8 °F /  13.8 °C 30.1 in /  1017.8 hPa SE 2.3 mph /  3.7 km/h 2.3 mph /  3.7 km/h 58 % 0 in /  0.0 mm
12:21 73 °F /  22.8 °C 56.8 °F /  13.8 °C 30.1 in /  1017.8 hPa WSW 3.5 mph /  5.6 km/h 3.5 mph /  5.6 km/h 57 % 0 in /  0.0 mm
12:26 72.9 °F /  22.7 °C 56.7 °F /  13.7 °C 30.1 in /  1017.8 hPa West 2.3 mph /  3.7 km/h 2.3 mph /  3.7 km/h 57 % 0 in /  0.0 mm
12:31 72.5 °F /  22.5 °C 56.5 °F /  13.6 °C 30.1 in /  1017.8 hPa SW 4.6 mph /  7.4 km/h 4.6 mph /  7.4 km/h 57 % 0 in /  0.0 mm
12:36 72.7 °F /  22.6 °C 56.7 °F /  13.7 °C 30.1 in /  1017.8 hPa SW 3.5 mph /  5.6 km/h 3.5 mph /  5.6 km/h 57 % 0 in /  0.0 mm
12:41 72.3 °F /  22.4 °C 56.1 °F /  13.4 °C 30.1 in /  1017.8 hPa West 3.5 mph /  5.6 km/h 3.5 mph /  5.6 km/h 57 % 0 in /  0.0 mm
12:46 72 °F /  22.2 °C 55.9 °F /  13.3 °C 30.1 in /  1017.8 hPa West 3.6 mph /  5.8 km/h 3.6 mph /  5.8 km/h 57 % 0 in /  0.0 mm
12:51 71.2 °F /  21.8 °C 55.2 °F /  12.9 °C 30.1 in /  1017.8 hPa SW 3.5 mph /  5.6 km/h 3.5 mph /  5.6 km/h 57 % 0 in /  0.0 mm
12:56 71.1 °F /  21.7 °C 55.6 °F /  13.1 °C 30.1 in /  1017.8 hPa SW 4.6 mph /  7.4 km/h 4.6 mph /  7.4 km/h 58 % 0 in /  0.0 mm
13:01 70.3 °F /  21.3 °C 54.3 °F /  12.4 °C 30.1 in /  1017.8 hPa WSW 5.8 mph /  9.3 km/h 5.8 mph /  9.3 km/h 57 % 0 in /  0.0 mm
13:06 70.3 °F /  21.3 °C 54.3 °F /  12.4 °C 30.1 in /  1017.8 hPa West 3.8 mph /  6.1 km/h 3.8 mph /  6.1 km/h 57 % 0 in /  0.0 mm
13:11 70.7 °F /  21.5 °C 54.7 °F /  12.6 °C 30.1 in /  1017.8 hPa WSW 7.6 mph /  12.2 km/h 7.6 mph /  12.2 km/h 57 % 0 in /  0.0 mm
13:16 71.2 °F /  21.8 °C 54.7 °F /  12.6 °C 30.1 in /  1017.8 hPa WSW 5.8 mph /  9.3 km/h 5.8 mph /  9.3 km/h 56 % 0 in /  0.0 mm
13:21 71.8 °F /  22.1 °C 54.1 °F /  12.3 °C 30.1 in /  1017.8 hPa WNW 4.6 mph /  7.4 km/h 4.6 mph /  7.4 km/h 54 % 0 in /  0.0 mm
13:26 72.7 °F /  22.6 °C 55 °F /  12.8 °C 30.1 in /  1017.8 hPa WSW 3.5 mph /  5.6 km/h 3.5 mph /  5.6 km/h 54 % 0 in /  0.0 mm
13:31 72.9 °F /  22.7 °C 55.2 °F /  12.9 °C 30.1 in /  1017.8 hPa West 2.3 mph /  3.7 km/h 2.3 mph /  3.7 km/h 54 % 0 in /  0.0 mm
13:36 73.9 °F /  23.3 °C 56.1 °F /  13.4 °C 30.1 in /  1017.8 hPa SW 2.3 mph /  3.7 km/h 2.3 mph /  3.7 km/h 54 % 0 in /  0.0 mm
13:41 74.8 °F /  23.8 °C 56.7 °F /  13.7 °C 30.1 in /  1017.8 hPa WSW 2.6 mph /  4.2 km/h 2.6 mph /  4.2 km/h 53 % 0 in /  0.0 mm
13:46 74.3 °F /  23.5 °C 55.6 °F /  13.1 °C 30.1 in /  1017.8 hPa SW 4.6 mph /  7.4 km/h 4.6 mph /  7.4 km/h 52 % 0 in /  0.0 mm
13:51 74.1 °F /  23.4 °C 55.9 °F /  13.3 °C 30.1 in /  1017.8 hPa West 3.5 mph /  5.6 km/h 3.5 mph /  5.6 km/h 53 % 0 in /  0.0 mm
13:56 75.4 °F /  24.1 °C 55.9 °F /  13.3 °C 30.1 in /  1017.8 hPa WSW 6.9 mph /  11.1 km/h 6.9 mph /  11.1 km/h 51 % 0 in /  0.0 mm
14:01 75.4 °F /  24.1 °C 55.9 °F /  13.3 °C 30.1 in /  1017.8 hPa SSW 5.8 mph /  9.3 km/h 5.8 mph /  9.3 km/h 51 % 0 in /  0.0 mm
14:06 75.9 °F /  24.4 °C 55.9 °F /  13.3 °C 30.1 in /  1017.8 hPa SW 3.5 mph /  5.6 km/h 3.5 mph /  5.6 km/h 50 % 0 in /  0.0 mm
14:11 77 °F /  25.0 °C 55.8 °F /  13.2 °C 30.1 in /  1017.8 hPa SSE 4.6 mph /  7.4 km/h 4.6 mph /  7.4 km/h 48 % 0 in /  0.0 mm
14:16 77.2 °F /  25.1 °C 55.9 °F /  13.3 °C 30.1 in /  1017.8 hPa ENE 3.5 mph /  5.6 km/h 3.5 mph /  5.6 km/h 48 % 0 in /  0.0 mm
14:21 78.1 °F /  25.6 °C 56.8 °F /  13.8 °C 30.1 in /  1017.8 hPa SW 5.8 mph /  9.3 km/h 5.8 mph /  9.3 km/h 48 % 0 in /  0.0 mm
14:26 78.3 °F /  25.7 °C 57 °F /  13.9 °C 30.1 in /  1017.8 hPa SSW 3.5 mph /  5.6 km/h 3.5 mph /  5.6 km/h 48 % 0 in /  0.0 mm
14:31 78.8 °F /  26.0 °C 56.8 °F /  13.8 °C 30.1 in /  1017.8 hPa WNW 5.8 mph /  9.3 km/h 5.8 mph /  9.3 km/h 47 % 0 in /  0.0 mm
14:36 79 °F /  26.1 °C 57 °F /  13.9 °C 30.1 in /  1017.8 hPa SSE 5.8 mph /  9.3 km/h 5.8 mph /  9.3 km/h 47 % 0 in /  0.0 mm
14:41 79.5 °F /  26.4 °C 56.8 °F /  13.8 °C 30.1 in /  1017.8 hPa West 2.4 mph /  3.9 km/h 2.4 mph /  3.9 km/h 46 % 0 in /  0.0 mm
14:46 79.7 °F /  26.5 °C 56.5 °F /  13.6 °C 30.1 in /  1017.8 hPa SW 4.6 mph /  7.4 km/h 4.6 mph /  7.4 km/h 45 % 0 in /  0.0 mm
14:51 80.2 °F /  26.8 °C 57 °F /  13.9 °C 30.1 in /  1017.8 hPa South 5.8 mph /  9.3 km/h 5.8 mph /  9.3 km/h 45 % 0 in /  0.0 mm
14:56 80.4 °F /  26.9 °C 56.5 °F /  13.6 °C 30 in /  1016.8 hPa West 3.5 mph /  5.6 km/h 3.5 mph /  5.6 km/h 44 % 0 in /  0.0 mm
15:01 79.5 °F /  26.4 °C 55 °F /  12.8 °C 30 in /  1016.8 hPa SSW 3.5 mph /  5.6 km/h 3.5 mph /  5.6 km/h 43 % 0 in /  0.0 mm
15:06 79.7 °F /  26.5 °C 55.2 °F /  12.9 °C 30 in /  1016.8 hPa ESE 8.1 mph /  13.0 km/h 8.1 mph /  13.0 km/h 43 % 0 in /  0.0 mm
15:11 80.1 °F /  26.7 °C 55.6 °F /  13.1 °C 30 in /  1016.8 hPa West 3.5 mph /  5.6 km/h 3.5 mph /  5.6 km/h 43 % 0 in /  0.0 mm
15:16 80.2 °F /  26.8 °C 56.3 °F /  13.5 °C 30 in /  1016.8 hPa SSW 4.6 mph /  7.4 km/h 4.6 mph /  7.4 km/h 44 % 0 in /  0.0 mm
15:21 80.4 °F /  26.9 °C 55.9 °F /  13.3 °C 30 in /  1016.8 hPa WSW 8.1 mph /  13.0 km/h 8.1 mph /  13.0 km/h 43 % 0 in /  0.0 mm
15:26 80.8 °F /  27.1 °C 53.4 °F /  11.9 °C 30 in /  1015.8 hPa SE 4.6 mph /  7.4 km/h 4.6 mph /  7.4 km/h 39 % 0 in /  0.0 mm
15:31 81.1 °F /  27.3 °C 54.5 °F /  12.5 °C 30 in /  1015.8 hPa East 4.6 mph /  7.4 km/h 4.6 mph /  7.4 km/h 40 % 0 in /  0.0 mm
15:36 80.4 °F /  26.9 °C 54 °F /  12.2 °C 30 in /  1015.8 hPa ESE 2.3 mph /  3.7 km/h 2.4 mph /  3.9 km/h 40 % 0 in /  0.0 mm
15:41 80.4 °F /  26.9 °C 54 °F /  12.2 °C 30 in /  1015.8 hPa South 6.9 mph /  11.1 km/h 6.9 mph /  11.1 km/h 40 % 0 in /  0.0 mm
15:46 81.3 °F /  27.4 °C 54 °F /  12.2 °C 30 in /  1015.8 hPa WSW 5.8 mph /  9.3 km/h 5.8 mph /  9.3 km/h 39 % 0 in /  0.0 mm
15:51 81.1 °F /  27.3 °C 54.5 °F /  12.5 °C 30 in /  1015.8 hPa SW 8.1 mph /  13.0 km/h 8.1 mph /  13.0 km/h 40 % 0 in /  0.0 mm
15:56 81 °F /  27.2 °C 54.3 °F /  12.4 °C 30 in /  1015.8 hPa WSW 3.6 mph /  5.8 km/h 3.6 mph /  5.8 km/h 40 % 0 in /  0.0 mm
16:01 80.6 °F /  27.0 °C 54 °F /  12.2 °C 30 in /  1015.8 hPa SW 3.5 mph /  5.6 km/h 3.5 mph /  5.6 km/h 40 % 0 in /  0.0 mm
16:06 79.9 °F /  26.6 °C 54.1 °F /  12.3 °C 30 in /  1015.8 hPa SW 4.6 mph /  7.4 km/h 4.6 mph /  7.4 km/h 41 % 0 in /  0.0 mm
16:11 79.2 °F /  26.2 °C 52.9 °F /  11.6 °C 30 in /  1015.8 hPa East 2.3 mph /  3.7 km/h 2.3 mph /  3.7 km/h 40 % 0 in /  0.0 mm
16:16 78.4 °F /  25.8 °C 52.9 °F /  11.6 °C 30 in /  1015.8 hPa SE 4.6 mph /  7.4 km/h 4.6 mph /  7.4 km/h 41 % 0 in /  0.0 mm
16:21 79.2 °F /  26.2 °C 54.1 °F /  12.3 °C 30 in /  1015.8 hPa SW 2.9 mph /  4.7 km/h 2.9 mph /  4.7 km/h 42 % 0 in /  0.0 mm
16:26 80.2 °F /  26.8 °C 55.8 °F /  13.2 °C 30 in /  1015.8 hPa WSW 4.6 mph /  7.4 km/h 4.6 mph /  7.4 km/h 43 % 0 in /  0.0 mm
16:31 81.5 °F /  27.5 °C 55.6 °F /  13.1 °C 30 in /  1015.8 hPa SW 3.5 mph /  5.6 km/h 3.5 mph /  5.6 km/h 41 % 0 in /  0.0 mm
16:36 81.9 °F /  27.7 °C 56.5 °F /  13.6 °C 30 in /  1015.8 hPa WNW 3.5 mph /  5.6 km/h 3.5 mph /  5.6 km/h 42 % 0 in /  0.0 mm
16:41 82 °F /  27.8 °C 56.7 °F /  13.7 °C 30 in /  1015.8 hPa SW 8.1 mph /  13.0 km/h 8.1 mph /  13.0 km/h 42 % 0 in /  0.0 mm
16:46 81.5 °F /  27.5 °C 56.1 °F /  13.4 °C 30 in /  1015.8 hPa SSW 6.9 mph /  11.1 km/h 6.9 mph /  11.1 km/h 42 % 0 in /  0.0 mm
16:51 80.8 °F /  27.1 °C 56.1 °F /  13.4 °C 30 in /  1015.8 hPa WSW 6.9 mph /  11.1 km/h 6.9 mph /  11.1 km/h 43 % 0 in /  0.0 mm
16:56 81 °F /  27.2 °C 56.5 °F /  13.6 °C 30 in /  1015.8 hPa WSW 4.6 mph /  7.4 km/h 4.6 mph /  7.4 km/h 43 % 0 in /  0.0 mm
17:01 81.5 °F /  27.5 °C 57.6 °F /  14.2 °C 30 in /  1015.8 hPa SSW 5.8 mph /  9.3 km/h 5.8 mph /  9.3 km/h 44 % 0 in /  0.0 mm
17:06 81.1 °F /  27.3 °C 57.2 °F /  14.0 °C 30 in /  1015.8 hPa WSW 6.9 mph /  11.1 km/h 6.9 mph /  11.1 km/h 44 % 0 in /  0.0 mm
17:11 80.8 °F /  27.1 °C 56.8 °F /  13.8 °C 30 in /  1015.8 hPa South 3.5 mph /  5.6 km/h 3.5 mph /  5.6 km/h 44 % 0 in /  0.0 mm
17:16 81 °F /  27.2 °C 57.6 °F /  14.2 °C 30 in /  1015.8 hPa WSW 6.9 mph /  11.1 km/h 6.9 mph /  11.1 km/h 45 % 0 in /  0.0 mm
17:21 80.2 °F /  26.8 °C 57.6 °F /  14.2 °C 30 in /  1015.8 hPa SSE 6.9 mph /  11.1 km/h 6.9 mph /  11.1 km/h 46 % 0 in /  0.0 mm
17:26 80.8 °F /  27.1 °C 57.6 °F /  14.2 °C 30 in /  1014.8 hPa SW 5.8 mph /  9.3 km/h 5.8 mph /  9.3 km/h 45 % 0 in /  0.0 mm
17:31 80.8 °F /  27.1 °C 57.6 °F /  14.2 °C 30 in /  1014.8 hPa SW 8.1 mph /  13.0 km/h 8.1 mph /  13.0 km/h 45 % 0 in /  0.0 mm
17:36 79.9 °F /  26.6 °C 57.4 °F /  14.1 °C 30 in /  1014.8 hPa SSW 5.8 mph /  9.3 km/h 5.8 mph /  9.3 km/h 46 % 0 in /  0.0 mm
17:41 80.1 °F /  26.7 °C 57.4 °F /  14.1 °C 30 in /  1014.8 hPa SW 8.1 mph /  13.0 km/h 8.1 mph /  13.0 km/h 46 % 0 in /  0.0 mm
17:46 80.4 °F /  26.9 °C 57.7 °F /  14.3 °C 30 in /  1014.8 hPa WSW 5.8 mph /  9.3 km/h 5.8 mph /  9.3 km/h 46 % 0 in /  0.0 mm
17:51 81.1 °F /  27.3 °C 57.7 °F /  14.3 °C 30 in /  1014.8 hPa WSW 5.8 mph /  9.3 km/h 5.8 mph /  9.3 km/h 45 % 0 in /  0.0 mm
17:56 80.8 °F /  27.1 °C 56.8 °F /  13.8 °C 30 in /  1014.8 hPa SW 5.8 mph /  9.3 km/h 5.8 mph /  9.3 km/h 44 % 0 in /  0.0 mm
18:01 80.4 °F /  26.9 °C 56.5 °F /  13.6 °C 30 in /  1014.8 hPa SSW 6.9 mph /  11.1 km/h 6.9 mph /  11.1 km/h 44 % 0 in /  0.0 mm
18:06 80.2 °F /  26.8 °C 56.3 °F /  13.5 °C 30 in /  1014.8 hPa WSW 5.8 mph /  9.3 km/h 5.8 mph /  9.3 km/h 44 % 0 in /  0.0 mm
18:11 80.1 °F /  26.7 °C 55.6 °F /  13.1 °C 30 in /  1014.8 hPa SSW 5.8 mph /  9.3 km/h 5.8 mph /  9.3 km/h 43 % 0 in /  0.0 mm
18:16 79.7 °F /  26.5 °C 55.2 °F /  12.9 °C 30 in /  1014.8 hPa SW 8.1 mph /  13.0 km/h 8.1 mph /  13.0 km/h 43 % 0 in /  0.0 mm
18:21 79.2 °F /  26.2 °C 54.7 °F /  12.6 °C 30 in /  1014.8 hPa South 5.8 mph /  9.3 km/h 5.8 mph /  9.3 km/h 43 % 0 in /  0.0 mm
18:26 79.5 °F /  26.4 °C 55.8 °F /  13.2 °C 30 in /  1014.8 hPa South 5.8 mph /  9.3 km/h 5.8 mph /  9.3 km/h 44 % 0 in /  0.0 mm
18:31 79.2 °F /  26.2 °C 54.7 °F /  12.6 °C 30 in /  1014.8 hPa SW 5.8 mph /  9.3 km/h 5.8 mph /  9.3 km/h 43 % 0 in /  0.0 mm
18:36 79.2 °F /  26.2 °C 54.7 °F /  12.6 °C 30 in /  1014.8 hPa WSW 5.8 mph /  9.3 km/h 5.8 mph /  9.3 km/h 43 % 0 in /  0.0 mm
18:41 79 °F /  26.1 °C 55.2 °F /  12.9 °C 30 in /  1014.8 hPa WSW 6 mph /  9.7 km/h 6 mph /  9.7 km/h 44 % 0 in /  0.0 mm
18:46 78.3 °F /  25.7 °C 54 °F /  12.2 °C 30 in /  1014.8 hPa SW 5.8 mph /  9.3 km/h 5.8 mph /  9.3 km/h 43 % 0 in /  0.0 mm
18:51 78.1 °F /  25.6 °C 53.1 °F /  11.7 °C 30 in /  1014.8 hPa SW 8.5 mph /  13.7 km/h 8.5 mph /  13.7 km/h 42 % 0 in /  0.0 mm
18:56 77.9 °F /  25.5 °C 53.6 °F /  12.0 °C 30 in /  1015.8 hPa South 5.8 mph /  9.3 km/h 5.8 mph /  9.3 km/h 43 % 0 in /  0.0 mm
19:01 77.9 °F /  25.5 °C 54.1 °F /  12.3 °C 30 in /  1015.8 hPa WSW 6 mph /  9.7 km/h 6 mph /  9.7 km/h 44 % 0 in /  0.0 mm
19:02 77.9 °F /  25.5 °C 54.1 °F /  12.3 °C 30 in /  1015.8 hPa South 6 mph /  9.7 km/h 6 mph /  9.7 km/h 44 % 0 in /  0.0 mm
19:07 77.4 °F /  25.2 °C 53.8 °F /  12.1 °C 30 in /  1015.8 hPa SSW 4.6 mph /  7.4 km/h 4.6 mph /  7.4 km/h 44 % 0 in /  0.0 mm
19:10 68.5 °F /  20.3 °C 58.5 °F /  14.7 °C 30.1 in /  1017.8 hPa ESE 1 mph /  1.6 km/h 2 mph /  3.2 km/h 70 % 0 in /  0.0 mm
19:12 76.8 °F /  24.9 °C 54 °F /  12.2 °C 30 in /  1015.8 hPa SSW 5.8 mph /  9.3 km/h 5.8 mph /  9.3 km/h 45 % 0 in /  0.0 mm
19:17 76.6 °F /  24.8 °C 53.8 °F /  12.1 °C 30 in /  1015.8 hPa SW 4.6 mph /  7.4 km/h 4.6 mph /  7.4 km/h 45 % 0 in /  0.0 mm
19:20 68.5 °F /  20.3 °C 58.5 °F /  14.7 °C 30.1 in /  1017.8 hPa East 1 mph /  1.6 km/h 2 mph /  3.2 km/h 70 % 0 in /  0.0 mm
19:22 76.1 °F /  24.5 °C 53.8 °F /  12.1 °C 30 in /  1015.8 hPa SW 5.8 mph /  9.3 km/h 5.8 mph /  9.3 km/h 46 % 0 in /  0.0 mm
19:27 75.7 °F /  24.3 °C 53.4 °F /  11.9 °C 30 in /  1015.8 hPa WSW 5.8 mph /  9.3 km/h 5.8 mph /  9.3 km/h 46 % 0 in /  0.0 mm
19:30 68.4 °F /  20.2 °C 58.3 °F /  14.6 °C 30.1 in /  1017.8 hPa Calm   1 mph /  1.6 km/h 70 % 0 in /  0.0 mm
19:32 75.6 °F /  24.2 °C 54 °F /  12.2 °C 30 in /  1015.8 hPa SSW 6 mph /  9.7 km/h 6 mph /  9.7 km/h 47 % 0 in /  0.0 mm
19:37 75.2 °F /  24.0 °C 53.6 °F /  12.0 °C 30 in /  1015.8 hPa South 3.5 mph /  5.6 km/h 3.5 mph /  5.6 km/h 47 % 0 in /  0.0 mm
19:40 68.2 °F /  20.1 °C 57.9 °F /  14.4 °C 30.1 in /  1017.8 hPa Calm   1 mph /  1.6 km/h 70 % 0 in /  0.0 mm
19:42 75 °F /  23.9 °C 54 °F /  12.2 °C 30 in /  1015.8 hPa SSW 5.8 mph /  9.3 km/h 5.8 mph /  9.3 km/h 48 % 0 in /  0.0 mm
19:47 74.7 °F /  23.7 °C 53.8 °F /  12.1 °C 30 in /  1015.8 hPa SW 2.4 mph /  3.9 km/h 2.4 mph /  3.9 km/h 48 % 0 in /  0.0 mm
19:50 67.8 °F /  19.9 °C 58.5 °F /  14.7 °C 30.1 in /  1017.8 hPa North 1 mph /  1.6 km/h 2 mph /  3.2 km/h 72 % 0 in /  0.0 mm
19:52 74.7 °F /  23.7 °C 53.8 °F /  12.1 °C 30 in /  1015.8 hPa SSW 5.8 mph /  9.3 km/h 5.8 mph /  9.3 km/h 48 % 0 in /  0.0 mm
19:57 74.3 °F /  23.5 °C 53.2 °F /  11.8 °C 30 in /  1015.8 hPa South 1.6 mph /  2.6 km/h 1.6 mph /  2.6 km/h 48 % 0 in /  0.0 mm
20:00 67.3 °F /  19.6 °C 57.9 °F /  14.4 °C 30.1 in /  1017.8 hPa Calm     72 % 0 in /  0.0 mm
20:02 74.1 °F /  23.4 °C 53.8 °F /  12.1 °C 30 in /  1015.8 hPa SSW 2.3 mph /  3.7 km/h 3.3 mph /  5.3 km/h 49 % 0 in /  0.0 mm
20:07 73.8 °F /  23.2 °C 54 °F /  12.2 °C 30 in /  1015.8 hPa South 3.5 mph /  5.6 km/h 3.5 mph /  5.6 km/h 50 % 0 in /  0.0 mm
20:10 67.3 °F /  19.6 °C 58.3 °F /  14.6 °C 30.1 in /  1017.8 hPa Calm     73 % 0 in /  0.0 mm
20:12 73.6 °F /  23.1 °C 53.8 °F /  12.1 °C 30 in /  1015.8 hPa Calm     50 % 0 in /  0.0 mm
20:17 73.2 °F /  22.9 °C 55 °F /  12.8 °C 30 in /  1015.8 hPa ENE 2.3 mph /  3.7 km/h 2.3 mph /  3.7 km/h 53 % 0 in /  0.0 mm
20:20 66.6 °F /  19.2 °C 57.6 °F /  14.2 °C 30.1 in /  1017.8 hPa Calm   2 mph /  3.2 km/h 73 % 0 in /  0.0 mm
20:22 72.3 °F /  22.4 °C 56.7 °F /  13.7 °C 30 in /  1015.8 hPa SW 5.8 mph /  9.3 km/h 5.8 mph /  9.3 km/h 58 % 0 in /  0.0 mm
20:27 72 °F /  22.2 °C 56.8 °F /  13.8 °C 30 in /  1015.8 hPa ESE 8.1 mph /  13.0 km/h 8.1 mph /  13.0 km/h 59 % 0 in /  0.0 mm
20:30 66.4 °F /  19.1 °C 57.7 °F /  14.3 °C 30.1 in /  1017.8 hPa Calm   1 mph /  1.6 km/h 74 % 0 in /  0.0 mm
20:32 71.6 °F /  22.0 °C 57.4 °F /  14.1 °C 30 in /  1015.8 hPa ESE 5.8 mph /  9.3 km/h 5.8 mph /  9.3 km/h 61 % 0 in /  0.0 mm
20:37 71.2 °F /  21.8 °C 57.6 °F /  14.2 °C 30 in /  1015.8 hPa ESE 5.8 mph /  9.3 km/h 5.8 mph /  9.3 km/h 62 % 0 in /  0.0 mm
20:40 66.6 °F /  19.2 °C 57.9 °F /  14.4 °C 30.1 in /  1017.8 hPa SW 1 mph /  1.6 km/h 2 mph /  3.2 km/h 74 % 0 in /  0.0 mm
20:42 71.1 °F /  21.7 °C 57.4 °F /  14.1 °C 30 in /  1015.8 hPa East 3.8 mph /  6.1 km/h 4.3 mph /  6.9 km/h 62 % 0 in /  0.0 mm
20:47 71.1 °F /  21.7 °C 58.3 °F /  14.6 °C 30 in /  1015.8 hPa ESE 8.1 mph /  13.0 km/h 8.1 mph /  13.0 km/h 64 % 0 in /  0.0 mm
20:50 65.8 °F /  18.8 °C 57.7 °F /  14.3 °C 30.1 in /  1017.8 hPa SSW 2 mph /  3.2 km/h 2 mph /  3.2 km/h 75 % 0 in /  0.0 mm
20:52 70.7 °F /  21.5 °C 57.9 °F /  14.4 °C 30 in /  1015.8 hPa East 4.6 mph /  7.4 km/h 4.6 mph /  7.4 km/h 64 % 0 in /  0.0 mm
20:57 70.7 °F /  21.5 °C 58.5 °F /  14.7 °C 30 in /  1015.8 hPa ESE 4.3 mph /  6.9 km/h 4.3 mph /  6.9 km/h 65 % 0 in /  0.0 mm
21:00 66 °F /  18.9 °C 58.3 °F /  14.6 °C 30.1 in /  1017.8 hPa Calm   2 mph /  3.2 km/h 76 % 0 in /  0.0 mm
21:02 70.5 °F /  21.4 °C 58.6 °F /  14.8 °C 30 in /  1015.8 hPa ENE 5.9 mph /  9.5 km/h 5.9 mph /  9.5 km/h 66 % 0 in /  0.0 mm
21:07 70.3 °F /  21.3 °C 57.9 °F /  14.4 °C 30 in /  1015.8 hPa East 4.6 mph /  7.4 km/h 4.6 mph /  7.4 km/h 65 % 0 in /  0.0 mm
21:10 66.2 °F /  19.0 °C 57.9 °F /  14.4 °C 30.1 in /  1017.8 hPa Calm     75 % 0 in /  0.0 mm
21:12 70.3 °F /  21.3 °C 58.5 °F /  14.7 °C 30 in /  1016.8 hPa ESE 5.8 mph /  9.3 km/h 5.8 mph /  9.3 km/h 66 % 0 in /  0.0 mm
21:17 70.3 °F /  21.3 °C 58.5 °F /  14.7 °C 30 in /  1016.8 hPa ESE 4.6 mph /  7.4 km/h 4.6 mph /  7.4 km/h 66 % 0 in /  0.0 mm
21:20 66.4 °F /  19.1 °C 56.7 °F /  13.7 °C 30.1 in /  1017.8 hPa Calm   1 mph /  1.6 km/h 71 % 0 in /  0.0 mm
21:22 70.3 °F /  21.3 °C 58.5 °F /  14.7 °C 30 in /  1016.8 hPa ESE 2.4 mph /  3.9 km/h 3.3 mph /  5.3 km/h 66 % 0 in /  0.0 mm
21:27 70.3 °F /  21.3 °C 58.5 °F /  14.7 °C 30 in /  1016.8 hPa ESE 2.4 mph /  3.9 km/h 3.3 mph /  5.3 km/h 66 % 0 in /  0.0 mm
21:30 66.9 °F /  19.4 °C 55.6 °F /  13.1 °C 30.1 in /  1017.8 hPa NNE 1 mph /  1.6 km/h 1 mph /  1.6 km/h 67 % 0 in /  0.0 mm
21:32 70.3 °F /  21.3 °C 58.5 °F /  14.7 °C 30 in /  1016.8 hPa ESE 2.4 mph /  3.9 km/h 3.3 mph /  5.3 km/h 66 % 0 in /  0.0 mm
21:37 70.3 °F /  21.3 °C 58.5 °F /  14.7 °C 30 in /  1016.8 hPa ESE 2.4 mph /  3.9 km/h 3.3 mph /  5.3 km/h 66 % 0 in /  0.0 mm
21:40 66.9 °F /  19.4 °C 55.2 °F /  12.9 °C 30.1 in /  1017.8 hPa NNE 1 mph /  1.6 km/h 2 mph /  3.2 km/h 66 % 0 in /  0.0 mm
21:42 70.3 °F /  21.3 °C 58.5 °F /  14.7 °C 30 in /  1016.8 hPa ESE 2.4 mph /  3.9 km/h 3.3 mph /  5.3 km/h 66 % 0 in /  0.0 mm
21:47 70.3 °F /  21.3 °C 58.5 °F /  14.7 °C 30 in /  1016.8 hPa ESE 2.4 mph /  3.9 km/h 3.3 mph /  5.3 km/h 66 % 0 in /  0.0 mm
21:50 66.6 °F /  19.2 °C 54.3 °F /  12.4 °C 30.1 in /  1017.8 hPa WSW 1 mph /  1.6 km/h 2 mph /  3.2 km/h 65 % 0 in /  0.0 mm
21:52 70.3 °F /  21.3 °C 58.5 °F /  14.7 °C 30 in /  1016.8 hPa ESE 2.4 mph /  3.9 km/h 3.3 mph /  5.3 km/h 66 % 0 in /  0.0 mm
21:57 70.3 °F /  21.3 °C 58.5 °F /  14.7 °C 30 in /  1016.8 hPa ESE 2.4 mph /  3.9 km/h 3.3 mph /  5.3 km/h 66 % 0 in /  0.0 mm
22:00 66.2 °F /  19.0 °C 53.8 °F /  12.1 °C 30 in /  1016.8 hPa WSW 2 mph /  3.2 km/h 2 mph /  3.2 km/h 64 % 0 in /  0.0 mm
22:02 70.3 °F /  21.3 °C 58.5 °F /  14.7 °C 30 in /  1016.8 hPa ESE 2.4 mph /  3.9 km/h 3.3 mph /  5.3 km/h 66 % 0 in /  0.0 mm
22:07 70.3 °F /  21.3 °C 58.5 °F /  14.7 °C 30 in /  1016.8 hPa ESE 2.4 mph /  3.9 km/h 3.3 mph /  5.3 km/h 66 % 0 in /  0.0 mm
22:10 66.2 °F /  19.0 °C 52 °F /  11.1 °C 30 in /  1016.8 hPa WSW 1 mph /  1.6 km/h 3 mph /  4.8 km/h 60 % 0 in /  0.0 mm
22:12 70.3 °F /  21.3 °C 58.5 °F /  14.7 °C 30 in /  1016.8 hPa ESE 2.4 mph /  3.9 km/h 3.3 mph /  5.3 km/h 66 % 0 in /  0.0 mm
22:17 70.3 °F /  21.3 °C 58.5 °F /  14.7 °C 30 in /  1016.8 hPa ESE 2.4 mph /  3.9 km/h 3.3 mph /  5.3 km/h 66 % 0 in /  0.0 mm
22:20 66 °F /  18.9 °C 51.3 °F /  10.7 °C 30.1 in /  1017.8 hPa WSW 3 mph /  4.8 km/h 3 mph /  4.8 km/h 59 % 0 in /  0.0 mm
22:22 70.3 °F /  21.3 °C 58.5 °F /  14.7 °C 30 in /  1016.8 hPa ESE 2.4 mph /  3.9 km/h 3.3 mph /  5.3 km/h 66 % 0 in /  0.0 mm
22:27 70.3 °F /  21.3 °C 58.5 °F /  14.7 °C 30 in /  1016.8 hPa ESE 2.4 mph /  3.9 km/h 3.3 mph /  5.3 km/h 66 % 0 in /  0.0 mm
22:30 65.5 °F /  18.6 °C 50.7 °F /  10.4 °C 30.1 in /  1017.8 hPa Calm   2 mph /  3.2 km/h 59 % 0 in /  0.0 mm
22:32 70.3 °F /  21.3 °C 58.5 °F /  14.7 °C 30 in /  1016.8 hPa ESE 2.4 mph /  3.9 km/h 3.3 mph /  5.3 km/h 66 % 0 in /  0.0 mm
22:37 70.3 °F /  21.3 °C 58.5 °F /  14.7 °C 30 in /  1016.8 hPa ESE 2.4 mph /  3.9 km/h 3.3 mph /  5.3 km/h 66 % 0 in /  0.0 mm
22:40 65.5 °F /  18.6 °C 50.4 °F /  10.2 °C 30.1 in /  1017.8 hPa WSW 2 mph /  3.2 km/h 3 mph /  4.8 km/h 58 % 0 in /  0.0 mm
22:42 70.3 °F /  21.3 °C 58.5 °F /  14.7 °C 30 in /  1016.8 hPa ESE 2.4 mph /  3.9 km/h 3.3 mph /  5.3 km/h 66 % 0 in /  0.0 mm
22:47 70.3 °F /  21.3 °C 58.5 °F /  14.7 °C 30 in /  1016.8 hPa ESE 2.4 mph /  3.9 km/h 3.3 mph /  5.3 km/h 66 % 0 in /  0.0 mm
22:50 65.3 °F /  18.5 °C 49.3 °F /  9.6 °C 30.1 in /  1017.8 hPa West 2 mph /  3.2 km/h 3 mph /  4.8 km/h 56 % 0 in /  0.0 mm
22:52 70.3 °F /  21.3 °C 58.5 °F /  14.7 °C 30 in /  1016.8 hPa ESE 2.4 mph /  3.9 km/h 3.3 mph /  5.3 km/h 66 % 0 in /  0.0 mm
22:57 70.3 °F /  21.3 °C 58.5 °F /  14.7 °C 30 in /  1016.8 hPa ESE 2.4 mph /  3.9 km/h 3.3 mph /  5.3 km/h 66 % 0 in /  0.0 mm
23:00 64.9 °F /  18.3 °C 48.9 °F /  9.4 °C 30 in /  1016.8 hPa West 2 mph /  3.2 km/h 4 mph /  6.4 km/h 56 % 0 in /  0.0 mm
23:02 70.3 °F /  21.3 °C 58.5 °F /  14.7 °C 30 in /  1016.8 hPa ESE 2.4 mph /  3.9 km/h 3.3 mph /  5.3 km/h 66 % 0 in /  0.0 mm
23:07 70.3 °F /  21.3 °C 58.5 °F /  14.7 °C 30 in /  1016.8 hPa ESE 2.4 mph /  3.9 km/h 3.3 mph /  5.3 km/h 66 % 0 in /  0.0 mm
23:10 64.4 °F /  18.0 °C 47.5 °F /  8.6 °C 30 in /  1016.8 hPa West 1 mph /  1.6 km/h 3 mph /  4.8 km/h 54 % 0 in /  0.0 mm
23:12 70.3 °F /  21.3 °C 58.5 °F /  14.7 °C 30 in /  1016.8 hPa ESE 2.4 mph /  3.9 km/h 3.3 mph /  5.3 km/h 66 % 0 in /  0.0 mm
23:17 70.3 °F /  21.3 °C 58.5 °F /  14.7 °C 30 in /  1016.8 hPa ESE 2.4 mph /  3.9 km/h 3.3 mph /  5.3 km/h 66 % 0 in /  0.0 mm
23:20 63.9 °F /  17.7 °C 47.5 °F /  8.6 °C 30.1 in /  1017.8 hPa WNW 2 mph /  3.2 km/h 3 mph /  4.8 km/h 55 % 0 in /  0.0 mm
23:22 70.3 °F /  21.3 °C 58.5 °F /  14.7 °C 30 in /  1016.8 hPa ESE 2.4 mph /  3.9 km/h 3.3 mph /  5.3 km/h 66 % 0 in /  0.0 mm
23:27 70.3 °F /  21.3 °C 58.5 °F /  14.7 °C 30 in /  1016.8 hPa ESE 2.4 mph /  3.9 km/h 3.3 mph /  5.3 km/h 66 % 0 in /  0.0 mm
23:30 63.3 °F /  17.4 °C 46.9 °F /  8.3 °C 30.1 in /  1017.8 hPa West 1 mph /  1.6 km/h 3 mph /  4.8 km/h 55 % 0 in /  0.0 mm
23:32 70.3 °F /  21.3 °C 58.5 °F /  14.7 °C 30 in /  1016.8 hPa ESE 2.4 mph /  3.9 km/h 3.3 mph /  5.3 km/h 66 % 0 in /  0.0 mm
23:37 70.3 °F /  21.3 °C 58.5 °F /  14.7 °C 30 in /  1016.8 hPa ESE 2.4 mph /  3.9 km/h 3.3 mph /  5.3 km/h 66 % 0 in /  0.0 mm
23:40 62.6 °F /  17.0 °C 46.8 °F /  8.2 °C 30.1 in /  1017.8 hPa WSW 1 mph /  1.6 km/h 3 mph /  4.8 km/h 56 % 0 in /  0.0 mm
23:42 70.3 °F /  21.3 °C 58.5 °F /  14.7 °C 30 in /  1016.8 hPa ESE 2.4 mph /  3.9 km/h 3.3 mph /  5.3 km/h 66 % 0 in /  0.0 mm
23:47 70.3 °F /  21.3 °C 58.5 °F /  14.7 °C 30 in /  1016.8 hPa ESE 2.4 mph /  3.9 km/h 3.3 mph /  5.3 km/h 66 % 0 in /  0.0 mm
23:50 62.1 °F /  16.7 °C 46.6 °F /  8.1 °C 30.1 in /  1018.8 hPa WSW 1 mph /  1.6 km/h 3 mph /  4.8 km/h 57 % 0 in /  0.0 mm
23:52 70.3 °F /  21.3 °C 58.5 °F /  14.7 °C 30 in /  1016.8 hPa ESE 2.4 mph /  3.9 km/h 3.3 mph /  5.3 km/h 66 % 0 in /  0.0 mm
23:57 70.3 °F /  21.3 °C 58.5 °F /  14.7 °C 30 in /  1016.8 hPa ESE 2.4 mph /  3.9 km/h 3.3 mph /  5.3 km/h 66 % 0 in /  0.0 mm
Meteo Sesrovires
Elogis d' Weather Underground - 3.75 mb

Guio original per  Jim McMurry - jmcmurry@mwt.net Adaptat per a la plantilla per  Wim van der Kuil - Leuven-Template.eu

Trobareu la nostra informacio del temps tambe a:

Weather Underground

AWEKAS